createdAt,value
2022-12-06T00:00:32.792Z,9.661471
2022-12-06T00:01:32.818Z,9.661398
2022-12-06T00:02:32.880Z,9.661486
2022-12-06T00:03:32.825Z,9.661492
2022-12-06T00:04:32.887Z,9.661484
2022-12-06T00:05:32.771Z,9.661541
2022-12-06T00:06:32.751Z,9.661625
2022-12-06T00:07:32.842Z,9.661596
2022-12-06T00:08:32.739Z,9.661515
2022-12-06T00:09:32.750Z,9.661556
2022-12-06T00:10:32.758Z,9.661478
2022-12-06T00:11:32.714Z,9.661492
2022-12-06T00:12:32.749Z,9.661620
2022-12-06T00:13:32.740Z,9.661746
2022-12-06T00:14:32.723Z,9.661425
2022-12-06T00:15:32.853Z,9.661369
2022-12-06T00:16:32.812Z,9.661383
2022-12-06T00:17:32.680Z,9.661363
2022-12-06T00:18:32.702Z,9.661521
2022-12-06T00:19:32.715Z,9.661512
2022-12-06T00:20:32.722Z,9.661512
2022-12-06T00:21:32.700Z,9.661529
2022-12-06T00:22:32.698Z,9.661471
2022-12-06T00:23:32.682Z,9.661450
2022-12-06T00:24:32.706Z,9.661445
2022-12-06T00:25:32.623Z,9.661546
2022-12-06T00:26:32.707Z,9.661517
2022-12-06T00:27:32.627Z,9.661456
2022-12-06T00:28:32.642Z,9.661533
2022-12-06T00:29:32.636Z,9.661581
2022-12-06T00:30:32.646Z,9.661680
2022-12-06T00:31:32.687Z,9.661719
2022-12-06T00:32:32.633Z,9.661404
2022-12-06T00:33:32.630Z,9.661557
2022-12-06T00:34:32.627Z,9.661525
2022-12-06T00:35:32.602Z,9.661362
2022-12-06T00:36:32.591Z,9.661480
2022-12-06T00:37:32.641Z,9.661442
2022-12-06T00:38:32.597Z,9.661257
2022-12-06T00:39:32.611Z,9.661353
2022-12-06T00:40:32.553Z,9.661655
2022-12-06T00:41:32.580Z,9.661540
2022-12-06T00:42:32.574Z,9.661417
2022-12-06T00:43:33.573Z,9.661527
2022-12-06T00:44:32.555Z,9.661532
2022-12-06T00:45:32.626Z,9.661620
2022-12-06T00:46:32.633Z,9.661661
2022-12-06T00:47:32.517Z,9.661647
2022-12-06T00:48:32.569Z,9.661653
2022-12-06T00:49:32.505Z,9.661646
2022-12-06T00:50:32.536Z,9.661674
2022-12-06T00:51:32.525Z,9.661636
2022-12-06T00:52:32.529Z,9.661626
2022-12-06T00:53:32.586Z,9.661628
2022-12-06T00:54:32.518Z,9.661649
2022-12-06T00:55:32.491Z,9.661637
2022-12-06T00:56:32.485Z,9.661636
2022-12-06T00:57:32.465Z,9.661536
2022-12-06T00:58:32.482Z,9.661556
2022-12-06T01:00:04.445Z,9.661576
2022-12-06T01:00:32.455Z,9.661640
2022-12-06T01:01:32.635Z,9.661654
2022-12-06T01:02:32.472Z,9.661511
2022-12-06T01:03:35.183Z,9.661628
2022-12-06T01:04:33.415Z,9.661643
2022-12-06T01:05:32.525Z,9.661541
2022-12-06T01:06:32.499Z,9.661558
2022-12-06T01:07:32.496Z,9.661544
2022-12-06T01:08:32.428Z,9.661504
2022-12-06T01:09:32.452Z,9.661527
2022-12-06T01:10:32.478Z,9.661517
2022-12-06T01:11:33.432Z,9.661409
2022-12-06T01:12:32.443Z,9.661467
2022-12-06T01:13:32.415Z,9.661389
2022-12-06T01:14:32.353Z,9.661185
2022-12-06T01:15:32.372Z,9.661584
2022-12-06T01:16:32.537Z,9.661278
2022-12-06T01:17:32.362Z,9.661151
2022-12-06T01:18:32.375Z,9.661402
2022-12-06T01:19:32.379Z,9.661399
2022-12-06T01:20:32.364Z,9.660889
2022-12-06T01:21:32.475Z,9.660938
2022-12-06T01:22:32.343Z,9.661064
2022-12-06T01:23:32.341Z,9.660963
2022-12-06T01:24:32.330Z,9.660682
2022-12-06T01:25:35.777Z,9.660542
2022-12-06T01:26:33.984Z,9.660856
2022-12-06T01:27:32.367Z,9.660501
2022-12-06T01:28:32.311Z,9.661327
2022-12-06T01:29:32.342Z,9.661589
2022-12-06T01:30:32.320Z,9.661706
2022-12-06T01:31:37.277Z,9.661543
2022-12-06T01:32:33.323Z,9.661735
2022-12-06T01:33:32.275Z,9.661791
2022-12-06T01:34:32.294Z,9.661654
2022-12-06T01:35:32.271Z,9.661386
2022-12-06T01:36:32.298Z,9.661766
2022-12-06T01:37:32.251Z,9.661841
2022-12-06T01:38:32.272Z,9.662320
2022-12-06T01:39:32.228Z,9.662164
2022-12-06T01:40:32.265Z,9.661610
2022-12-06T01:41:32.282Z,9.662534
2022-12-06T01:42:32.281Z,9.662182
2022-12-06T01:43:32.262Z,9.661890
2022-12-06T01:44:32.241Z,9.661868
2022-12-06T01:45:32.257Z,9.661559
2022-12-06T01:46:32.322Z,9.661594
2022-12-06T01:47:32.255Z,9.661628
2022-12-06T01:48:32.238Z,9.661802
2022-12-06T01:49:32.286Z,9.662168
2022-12-06T01:50:32.175Z,9.661939
2022-12-06T01:51:32.192Z,9.662074
2022-12-06T01:52:32.203Z,9.661803
2022-12-06T01:53:32.214Z,9.661706
2022-12-06T01:54:32.190Z,9.661538
2022-12-06T01:55:32.170Z,9.662018
2022-12-06T01:56:32.144Z,9.661843
2022-12-06T01:57:32.158Z,9.662298
2022-12-06T01:58:32.202Z,9.661750
2022-12-06T01:59:32.154Z,9.661924
2022-12-06T02:00:32.139Z,9.661489
2022-12-06T02:01:32.167Z,9.661520
2022-12-06T02:02:32.191Z,9.661540
2022-12-06T02:03:32.143Z,9.661839
2022-12-06T02:04:32.164Z,9.661676
2022-12-06T02:05:36.119Z,9.661560
2022-12-06T02:06:34.087Z,9.661476
2022-12-06T02:07:32.256Z,9.661731
2022-12-06T02:08:32.105Z,9.661598
2022-12-06T02:09:32.099Z,9.661495
2022-12-06T02:10:32.082Z,9.661562
2022-12-06T02:11:35.217Z,9.661695
2022-12-06T02:12:33.124Z,9.661807
2022-12-06T02:13:32.069Z,9.661760
2022-12-06T02:14:32.204Z,9.661900
2022-12-06T02:15:32.053Z,9.661630
2022-12-06T02:16:32.276Z,9.661634
2022-12-06T02:17:32.049Z,9.661506
2022-12-06T02:18:32.041Z,9.661638
2022-12-06T02:19:32.010Z,9.661500
2022-12-06T02:20:32.145Z,9.661355
2022-12-06T02:21:32.028Z,9.661331
2022-12-06T02:22:31.992Z,9.661926
2022-12-06T02:23:32.004Z,9.661876
2022-12-06T02:24:32.022Z,9.661530
2022-12-06T02:25:34.171Z,9.661754
2022-12-06T02:26:32.968Z,9.662093
2022-12-06T02:27:31.959Z,9.661544
2022-12-06T02:28:32.009Z,9.661468
2022-12-06T02:29:31.992Z,9.661388
2022-12-06T02:30:32.999Z,9.661617
2022-12-06T02:31:32.037Z,9.661818
2022-12-06T02:32:31.943Z,9.661538
2022-12-06T02:33:31.992Z,9.661839
2022-12-06T02:34:31.956Z,9.661478
2022-12-06T02:35:31.904Z,9.661593
2022-12-06T02:36:31.954Z,9.661646
2022-12-06T02:37:31.929Z,9.661489
2022-12-06T02:38:31.935Z,9.661255
2022-12-06T02:39:31.957Z,9.661146
2022-12-06T02:40:31.925Z,9.661307
2022-12-06T02:41:31.890Z,9.661487
2022-12-06T02:42:31.952Z,9.661450
2022-12-06T02:43:31.917Z,9.661451
2022-12-06T02:44:31.910Z,9.661629
2022-12-06T02:45:31.894Z,9.661558
2022-12-06T02:46:31.942Z,9.661400
2022-12-06T02:47:31.986Z,9.661219
2022-12-06T02:48:31.873Z,9.661694
2022-12-06T02:49:31.825Z,9.661530
2022-12-06T02:50:31.854Z,9.661731
2022-12-06T02:51:31.803Z,9.661837
2022-12-06T02:52:31.825Z,9.661451
2022-12-06T02:53:31.978Z,9.661616
2022-12-06T02:54:31.807Z,9.661606
2022-12-06T02:55:31.830Z,9.661562
2022-12-06T02:56:31.810Z,9.661763
2022-12-06T02:57:31.791Z,9.661795
2022-12-06T02:58:31.909Z,9.661701
2022-12-06T02:59:31.825Z,9.661652
2022-12-06T03:00:31.777Z,9.661599
2022-12-06T03:01:31.838Z,9.661629
2022-12-06T03:02:31.822Z,9.661755
2022-12-06T03:03:31.771Z,9.661565
2022-12-06T03:04:31.871Z,9.661694
2022-12-06T03:05:31.763Z,9.661543
2022-12-06T03:06:31.709Z,9.661449
2022-12-06T03:07:31.788Z,9.661497
2022-12-06T03:08:31.752Z,9.661451
2022-12-06T03:09:31.758Z,9.661721
2022-12-06T03:10:31.743Z,9.661704
2022-12-06T03:11:31.712Z,9.662076
2022-12-06T03:12:31.713Z,9.661731
2022-12-06T03:13:31.716Z,9.661512
2022-12-06T03:14:31.715Z,9.661557
2022-12-06T03:15:31.786Z,9.662141
2022-12-06T03:16:31.711Z,9.662788
2022-12-06T03:17:31.685Z,9.661775
2022-12-06T03:18:31.724Z,9.661724
2022-12-06T03:19:31.642Z,9.661839
2022-12-06T03:20:31.725Z,9.661926
2022-12-06T03:21:31.674Z,9.662177
2022-12-06T03:22:34.508Z,9.662488
2022-12-06T03:23:31.650Z,9.662432
2022-12-06T03:24:31.645Z,9.662006
2022-12-06T03:25:31.661Z,9.662188
2022-12-06T03:26:31.715Z,9.661998
2022-12-06T03:27:31.603Z,9.661941
2022-12-06T03:28:31.594Z,9.661703
2022-12-06T03:29:31.629Z,9.661514
2022-12-06T03:30:31.620Z,9.661402
2022-12-06T03:31:31.669Z,9.661347
2022-12-06T03:32:31.641Z,9.661411
2022-12-06T03:33:31.558Z,9.661506
2022-12-06T03:34:31.632Z,9.661485
2022-12-06T03:35:31.578Z,9.661563
2022-12-06T03:36:31.607Z,9.661568
2022-12-06T03:37:31.749Z,9.661558
2022-12-06T03:38:31.563Z,9.661555
2022-12-06T03:39:31.555Z,9.661565
2022-12-06T03:40:31.583Z,9.661526
2022-12-06T03:41:31.531Z,9.661625
2022-12-06T03:42:31.555Z,9.661575
2022-12-06T03:43:31.558Z,9.661613
2022-12-06T03:44:31.535Z,9.661760
2022-12-06T03:45:31.577Z,9.661631
2022-12-06T03:46:31.652Z,9.661631
2022-12-06T03:47:31.510Z,9.661599
2022-12-06T03:48:31.687Z,9.661630
2022-12-06T03:49:31.514Z,9.661617
2022-12-06T03:50:31.526Z,9.661678
2022-12-06T03:51:31.523Z,9.661757
2022-12-06T03:52:31.479Z,9.661767
2022-12-06T03:53:31.619Z,9.661617
2022-12-06T03:54:31.475Z,9.661734
2022-12-06T03:55:32.499Z,9.661713
2022-12-06T03:56:31.513Z,9.661644
2022-12-06T03:57:31.472Z,9.661594
2022-12-06T03:58:31.515Z,9.661592
2022-12-06T03:59:31.606Z,9.661683
2022-12-06T04:00:31.440Z,9.661670
2022-12-06T04:01:31.490Z,9.661662
2022-12-06T04:02:31.433Z,9.661585
2022-12-06T04:03:31.485Z,9.661632
2022-12-06T04:04:31.569Z,9.661707
2022-12-06T04:05:31.423Z,9.661782
2022-12-06T04:06:31.450Z,9.661647
2022-12-06T04:07:31.508Z,9.661553
2022-12-06T04:08:31.373Z,9.661543
2022-12-06T04:09:31.416Z,9.661519
2022-12-06T04:10:31.474Z,9.661597
2022-12-06T04:11:31.368Z,9.661696
2022-12-06T04:12:31.468Z,9.661530
2022-12-06T04:13:31.410Z,9.661617
2022-12-06T04:14:31.473Z,9.661687
2022-12-06T04:15:31.517Z,9.661369
2022-12-06T04:16:31.403Z,9.661454
2022-12-06T04:17:31.392Z,9.661570
2022-12-06T04:18:31.397Z,9.661696
2022-12-06T04:19:31.349Z,9.661680
2022-12-06T04:20:31.373Z,9.661659
2022-12-06T04:21:31.410Z,9.661673
2022-12-06T04:22:31.377Z,9.661720
2022-12-06T04:23:31.366Z,9.661502
2022-12-06T04:24:31.308Z,9.661594
2022-12-06T04:25:31.307Z,9.661681
2022-12-06T04:26:31.460Z,9.661819
2022-12-06T04:27:31.376Z,9.661762
2022-12-06T04:28:31.316Z,9.661608
2022-12-06T04:29:31.996Z,9.661644
2022-12-06T04:30:31.287Z,9.661662
2022-12-06T04:31:31.329Z,9.661646
2022-12-06T04:32:31.289Z,9.661587
2022-12-06T04:33:31.313Z,9.661490
2022-12-06T04:34:31.306Z,9.661611
2022-12-06T04:35:31.285Z,9.661767
2022-12-06T04:36:31.258Z,9.661583
2022-12-06T04:37:31.364Z,9.661607
2022-12-06T04:38:31.245Z,9.661798
2022-12-06T04:39:31.255Z,9.661769
2022-12-06T04:40:31.240Z,9.661701
2022-12-06T04:41:31.252Z,9.661720
2022-12-06T04:42:31.256Z,9.661360
2022-12-06T04:43:31.262Z,9.661672
2022-12-06T04:44:31.219Z,9.662068
2022-12-06T04:45:31.229Z,9.661556
2022-12-06T04:46:31.255Z,9.661175
2022-12-06T04:47:31.196Z,9.661554
2022-12-06T04:48:31.285Z,9.661633
2022-12-06T04:49:31.191Z,9.661564
2022-12-06T04:50:31.194Z,9.661586
2022-12-06T04:51:31.194Z,9.661664
2022-12-06T04:52:35.414Z,9.661670
2022-12-06T04:53:32.179Z,9.661797
2022-12-06T04:54:31.152Z,9.661788
2022-12-06T04:55:31.195Z,9.661713
2022-12-06T04:56:31.191Z,9.661873
2022-12-06T04:57:31.157Z,9.661641
2022-12-06T04:58:31.148Z,9.661613
2022-12-06T04:59:31.169Z,9.661630
2022-12-06T05:00:31.193Z,9.661756
2022-12-06T05:01:31.121Z,9.661728
2022-12-06T05:02:31.148Z,9.661735
2022-12-06T05:03:31.219Z,9.661716
2022-12-06T05:04:31.130Z,9.661482
2022-12-06T05:05:31.125Z,9.661436
2022-12-06T05:06:31.098Z,9.661520
2022-12-06T05:07:31.169Z,9.661531
2022-12-06T05:08:31.133Z,9.661599
2022-12-06T05:09:31.079Z,9.661604
2022-12-06T05:10:31.186Z,9.661526
2022-12-06T05:11:31.075Z,9.661542
2022-12-06T05:12:31.090Z,9.661510
2022-12-06T05:13:31.027Z,9.661491
2022-12-06T05:14:31.086Z,9.661491
2022-12-06T05:15:31.115Z,9.661508
2022-12-06T05:16:31.138Z,9.661514
2022-12-06T05:17:31.051Z,9.661495
2022-12-06T05:18:31.041Z,9.661469
2022-12-06T05:19:31.015Z,9.661476
2022-12-06T05:20:31.011Z,9.661529
2022-12-06T05:21:31.116Z,9.661394
2022-12-06T05:22:31.036Z,9.661405
2022-12-06T05:23:31.031Z,9.661529
2022-12-06T05:24:30.963Z,9.661581
2022-12-06T05:25:30.975Z,9.661563
2022-12-06T05:26:31.044Z,9.661568
2022-12-06T05:27:35.811Z,9.661533
2022-12-06T05:28:31.988Z,9.661587
2022-12-06T05:29:30.948Z,9.661584
2022-12-06T05:30:30.996Z,9.661614
2022-12-06T05:31:31.011Z,9.661537
2022-12-06T05:32:30.984Z,9.661479
2022-12-06T05:33:30.970Z,9.661491
2022-12-06T05:34:31.000Z,9.661464
2022-12-06T05:35:30.950Z,9.661462
2022-12-06T05:36:30.947Z,9.661566
2022-12-06T05:37:31.147Z,9.661528
2022-12-06T05:38:30.955Z,9.661613
2022-12-06T05:39:30.940Z,9.661529
2022-12-06T05:40:30.946Z,9.661499
2022-12-06T05:41:30.956Z,9.661570
2022-12-06T05:42:30.962Z,9.661537
2022-12-06T05:43:30.928Z,9.661582
2022-12-06T05:44:30.938Z,9.661613
2022-12-06T05:45:30.987Z,9.661584
2022-12-06T05:46:30.868Z,9.661554
2022-12-06T05:47:30.921Z,9.661479
2022-12-06T05:48:30.883Z,9.661511
2022-12-06T05:49:30.877Z,9.661625
2022-12-06T05:50:30.873Z,9.661578
2022-12-06T05:51:30.899Z,9.661641
2022-12-06T05:52:30.860Z,9.661633
2022-12-06T05:53:30.822Z,9.661514
2022-12-06T05:54:30.879Z,9.661368
2022-12-06T05:55:30.870Z,9.661481
2022-12-06T05:56:30.861Z,9.661497
2022-12-06T05:57:30.848Z,9.661514
2022-12-06T05:58:30.824Z,9.661498
2022-12-06T05:59:30.862Z,9.661509
2022-12-06T06:00:30.794Z,9.661561
2022-12-06T06:01:30.789Z,9.661675
2022-12-06T06:02:31.172Z,9.661597
2022-12-06T06:03:30.869Z,9.661548
2022-12-06T06:04:30.779Z,9.661417
2022-12-06T06:05:30.926Z,9.661447
2022-12-06T06:06:30.795Z,9.661567
2022-12-06T06:07:30.805Z,9.661480
2022-12-06T06:08:30.807Z,9.661486
2022-12-06T06:09:30.826Z,9.661278
2022-12-06T06:10:30.753Z,9.660976
2022-12-06T06:11:30.731Z,9.661180
2022-12-06T06:12:30.730Z,9.661453
2022-12-06T06:13:30.748Z,9.661319
2022-12-06T06:14:30.753Z,9.661416
2022-12-06T06:15:30.731Z,9.661284
2022-12-06T06:16:31.864Z,9.661335
2022-12-06T06:17:30.730Z,9.661628
2022-12-06T06:18:30.701Z,9.661464
2022-12-06T06:19:30.719Z,9.661576
2022-12-06T06:20:30.692Z,9.661526
2022-12-06T06:21:30.707Z,9.661435
2022-12-06T06:22:30.739Z,9.661446
2022-12-06T06:23:30.693Z,9.661383
2022-12-06T06:24:30.652Z,9.661610
2022-12-06T06:25:30.697Z,9.661724
2022-12-06T06:26:31.144Z,9.661789
2022-12-06T06:27:30.817Z,9.661443
2022-12-06T06:28:30.632Z,9.661463
2022-12-06T06:29:30.659Z,9.661491
2022-12-06T06:30:30.682Z,9.661984
2022-12-06T06:31:30.718Z,9.662147
2022-12-06T06:32:30.621Z,9.661983
2022-12-06T06:33:30.670Z,9.661694
2022-12-06T06:34:30.637Z,9.661815
2022-12-06T06:35:30.647Z,9.661885
2022-12-06T06:36:30.637Z,9.661781
2022-12-06T06:37:30.651Z,9.661786
2022-12-06T06:38:30.673Z,9.661388
2022-12-06T06:39:30.591Z,9.661500
2022-12-06T06:40:30.617Z,9.661577
2022-12-06T06:41:30.579Z,9.662023
2022-12-06T06:42:30.620Z,9.661969
2022-12-06T06:43:30.578Z,9.661710
2022-12-06T06:44:30.622Z,9.661994
2022-12-06T06:45:30.555Z,9.662038
2022-12-06T06:46:30.580Z,9.661644
2022-12-06T06:47:30.548Z,9.661510
2022-12-06T06:48:30.577Z,9.661781
2022-12-06T06:49:30.588Z,9.661861
2022-12-06T06:50:30.568Z,9.661890
2022-12-06T06:51:30.516Z,9.661890
2022-12-06T06:52:30.544Z,9.662020
2022-12-06T06:53:30.564Z,9.662020
2022-12-06T06:54:30.526Z,9.662020
2022-12-06T06:55:30.609Z,9.662020
2022-12-06T06:56:30.533Z,9.662020
2022-12-06T06:57:30.473Z,9.662020
2022-12-06T06:58:30.499Z,9.661462
2022-12-06T06:59:30.482Z,9.661312
2022-12-06T07:01:02.605Z,9.661082
2022-12-06T07:01:30.540Z,9.660935
2022-12-06T07:02:30.531Z,9.661704
2022-12-06T07:03:30.454Z,9.661782
2022-12-06T07:04:30.488Z,9.661479
2022-12-06T07:05:30.448Z,9.661460
2022-12-06T07:06:30.507Z,9.661400
2022-12-06T07:07:30.472Z,9.661203
2022-12-06T07:08:30.447Z,9.661376
2022-12-06T07:09:30.407Z,9.661314
2022-12-06T07:10:30.457Z,9.661313
2022-12-06T07:11:30.481Z,9.661576
2022-12-06T07:12:30.417Z,9.661282
2022-12-06T07:13:30.438Z,9.661638
2022-12-06T07:14:30.418Z,9.661783
2022-12-06T07:15:30.436Z,9.661788
2022-12-06T07:16:30.510Z,9.661859
2022-12-06T07:17:31.434Z,9.661649
2022-12-06T07:18:30.414Z,9.661562
2022-12-06T07:19:30.417Z,9.661368
2022-12-06T07:20:30.392Z,9.661295
2022-12-06T07:21:30.422Z,9.661528
2022-12-06T07:22:30.500Z,9.661486
2022-12-06T07:23:30.396Z,9.661644
2022-12-06T07:24:30.369Z,9.661723
2022-12-06T07:25:30.388Z,9.661644
2022-12-06T07:26:30.347Z,9.661679
2022-12-06T07:27:30.347Z,9.661909
2022-12-06T07:28:30.372Z,9.661766
2022-12-06T07:29:30.339Z,9.661845
2022-12-06T07:30:30.351Z,9.661792
2022-12-06T07:31:30.372Z,9.661902
2022-12-06T07:32:30.315Z,9.661835
2022-12-06T07:33:30.327Z,9.661790
2022-12-06T07:34:30.350Z,9.662007
2022-12-06T07:35:55.456Z,9.661877
2022-12-06T07:36:31.403Z,9.661988
2022-12-06T07:37:30.278Z,9.661966
2022-12-06T07:38:30.296Z,9.661989
2022-12-06T07:39:30.480Z,9.661954
2022-12-06T07:40:56.018Z,9.661873
2022-12-06T07:41:31.293Z,9.661775
2022-12-06T07:42:30.237Z,9.661732
2022-12-06T07:43:30.244Z,9.662096
2022-12-06T07:44:30.353Z,9.661945
2022-12-06T07:45:30.256Z,9.661997
2022-12-06T07:46:30.335Z,9.661839
2022-12-06T07:47:30.236Z,9.661836
2022-12-06T07:48:30.214Z,9.661900
2022-12-06T07:49:30.236Z,9.661819
2022-12-06T07:50:30.322Z,9.661714
2022-12-06T07:51:30.201Z,9.662077
2022-12-06T07:52:30.193Z,9.662059
2022-12-06T07:53:30.178Z,9.662042
2022-12-06T07:54:30.224Z,9.661903
2022-12-06T07:55:30.240Z,9.661876
2022-12-06T07:56:30.206Z,9.661713
2022-12-06T07:57:30.210Z,9.661857
2022-12-06T07:58:30.199Z,9.661752
2022-12-06T07:59:30.213Z,9.661918
2022-12-06T08:00:30.187Z,9.661955
2022-12-06T08:01:30.336Z,9.662386
2022-12-06T08:02:30.170Z,9.662190
2022-12-06T08:03:30.158Z,9.661498
2022-12-06T08:04:30.219Z,9.661565
2022-12-06T08:05:30.174Z,9.661558
2022-12-06T08:06:30.215Z,9.661361
2022-12-06T08:07:30.154Z,9.661523
2022-12-06T08:08:30.208Z,9.661616
2022-12-06T08:09:30.100Z,9.661557
2022-12-06T08:10:30.127Z,9.661495
2022-12-06T08:11:30.097Z,9.661492
2022-12-06T08:12:31.061Z,9.661414
2022-12-06T08:13:30.118Z,9.661530
2022-12-06T08:14:30.161Z,9.661621
2022-12-06T08:15:30.066Z,9.661448
2022-12-06T08:16:30.167Z,9.661574
2022-12-06T08:17:30.115Z,9.661556
2022-12-06T08:18:30.081Z,9.661524
2022-12-06T08:19:30.065Z,9.661529
2022-12-06T08:20:30.068Z,9.661606
2022-12-06T08:21:30.036Z,9.661521
2022-12-06T08:22:30.065Z,9.661562
2022-12-06T08:23:34.181Z,9.661634
2022-12-06T08:24:30.053Z,9.661442
2022-12-06T08:25:30.051Z,9.661479
2022-12-06T08:26:30.018Z,9.661436
2022-12-06T08:27:30.056Z,9.661518
2022-12-06T08:28:30.093Z,9.661481
2022-12-06T08:29:30.033Z,9.661493
2022-12-06T08:30:30.022Z,9.661433
2022-12-06T08:31:30.110Z,9.661461
2022-12-06T08:32:29.994Z,9.661448
2022-12-06T08:33:29.999Z,9.661489
2022-12-06T08:34:30.116Z,9.661451
2022-12-06T08:35:30.012Z,9.661491
2022-12-06T08:36:29.963Z,9.661564
2022-12-06T08:37:29.969Z,9.661680
2022-12-06T08:38:29.950Z,9.661597
2022-12-06T08:39:30.004Z,9.661586
2022-12-06T08:40:29.952Z,9.661625
2022-12-06T08:41:29.974Z,9.661514
2022-12-06T08:42:29.965Z,9.661549
2022-12-06T08:43:29.956Z,9.661556
2022-12-06T08:44:29.923Z,9.661442
2022-12-06T08:45:30.061Z,9.661299
2022-12-06T08:46:30.082Z,9.661676
2022-12-06T08:47:29.903Z,9.661345
2022-12-06T08:48:29.922Z,9.661550
2022-12-06T08:49:29.911Z,9.661621
2022-12-06T08:50:29.922Z,9.661560
2022-12-06T08:51:29.887Z,9.661537
2022-12-06T08:52:29.870Z,9.661654
2022-12-06T08:53:29.872Z,9.661670
2022-12-06T08:54:29.899Z,9.661652
2022-12-06T08:55:29.889Z,9.661679
2022-12-06T08:56:30.008Z,9.661407
2022-12-06T08:57:29.859Z,9.661151
2022-12-06T08:58:29.886Z,9.661469
2022-12-06T08:59:29.841Z,9.661563
2022-12-06T09:00:29.865Z,9.661614
2022-12-06T09:01:35.706Z,9.661621
2022-12-06T09:02:31.844Z,9.661479
2022-12-06T09:03:29.810Z,9.661252
2022-12-06T09:04:29.927Z,9.661530
2022-12-06T09:05:29.804Z,9.661615
2022-12-06T09:06:29.806Z,9.661614
2022-12-06T09:07:29.937Z,9.661298
2022-12-06T09:08:29.845Z,9.661203
2022-12-06T09:09:29.823Z,9.661333
2022-12-06T09:10:29.786Z,9.661037
2022-12-06T09:11:29.795Z,9.661650
2022-12-06T09:12:29.778Z,9.661608
2022-12-06T09:13:29.806Z,9.661973
2022-12-06T09:14:29.774Z,9.662213
2022-12-06T09:15:29.778Z,9.661866
2022-12-06T09:16:29.779Z,9.661685
2022-12-06T09:17:29.742Z,9.661591
2022-12-06T09:18:29.846Z,9.661469
2022-12-06T09:19:29.771Z,9.661557
2022-12-06T09:20:29.731Z,9.661719
2022-12-06T09:21:29.725Z,9.661555
2022-12-06T09:22:29.734Z,9.661188
2022-12-06T09:23:29.731Z,9.661547
2022-12-06T09:24:29.734Z,9.661677
2022-12-06T09:25:29.713Z,9.661448
2022-12-06T09:26:29.716Z,9.661677
2022-12-06T09:27:29.693Z,9.661719
2022-12-06T09:28:29.712Z,9.661450
2022-12-06T09:29:29.812Z,9.661641
2022-12-06T09:30:29.698Z,9.661564
2022-12-06T09:31:29.725Z,9.661298
2022-12-06T09:32:29.661Z,9.661517
2022-12-06T09:33:29.689Z,9.661553
2022-12-06T09:34:29.796Z,9.661553
2022-12-06T09:35:29.644Z,9.661553
2022-12-06T09:36:29.651Z,9.661249
2022-12-06T09:37:29.663Z,9.661584
2022-12-06T09:38:29.630Z,9.661443
2022-12-06T09:39:29.651Z,9.661448
2022-12-06T09:40:29.642Z,9.661425
2022-12-06T09:41:29.637Z,9.661503
2022-12-06T09:42:29.620Z,9.661673
2022-12-06T09:43:29.670Z,9.661896
2022-12-06T09:44:29.616Z,9.661641
2022-12-06T09:45:29.738Z,9.661407
2022-12-06T09:46:29.700Z,9.661234
2022-12-06T09:47:29.559Z,9.661393
2022-12-06T09:48:29.596Z,9.661402
2022-12-06T09:49:29.596Z,9.661287
2022-12-06T09:50:30.578Z,9.661291
2022-12-06T09:51:29.604Z,9.661553
2022-12-06T09:52:29.558Z,9.661848
2022-12-06T09:53:29.519Z,9.661693
2022-12-06T09:54:29.556Z,9.661207
2022-12-06T09:55:29.550Z,9.661065
2022-12-06T09:56:29.556Z,9.660706
2022-12-06T09:57:29.538Z,9.660913
2022-12-06T09:58:29.573Z,9.660783
2022-12-06T09:59:29.510Z,9.660575
2022-12-06T10:00:29.509Z,9.660217
2022-12-06T10:01:29.691Z,9.660313
2022-12-06T10:02:29.550Z,9.660120
2022-12-06T10:03:29.594Z,9.660493
2022-12-06T10:04:29.487Z,9.660834
2022-12-06T10:05:29.490Z,9.661198
2022-12-06T10:06:29.469Z,9.661448
2022-12-06T10:07:29.514Z,9.661375
2022-12-06T10:08:29.613Z,9.661483
2022-12-06T10:09:29.491Z,9.661305
2022-12-06T10:10:29.447Z,9.660836
2022-12-06T10:11:29.518Z,9.660239
2022-12-06T10:12:29.444Z,9.659977
2022-12-06T10:13:29.461Z,9.660296
2022-12-06T10:14:29.513Z,9.660308
2022-12-06T10:15:29.439Z,9.660468
2022-12-06T10:16:29.500Z,9.660531
2022-12-06T10:17:29.418Z,9.660686
2022-12-06T10:18:30.109Z,9.661008
2022-12-06T10:19:29.499Z,9.660931
2022-12-06T10:20:29.395Z,9.660792
2022-12-06T10:21:29.467Z,9.660749
2022-12-06T10:22:29.391Z,9.660935
2022-12-06T10:23:29.505Z,9.661337
2022-12-06T10:24:29.364Z,9.661236
2022-12-06T10:25:29.437Z,9.661250
2022-12-06T10:26:29.385Z,9.661294
2022-12-06T10:27:29.384Z,9.661550
2022-12-06T10:28:29.394Z,9.661695
2022-12-06T10:29:30.034Z,9.661656
2022-12-06T10:30:29.317Z,9.661513
2022-12-06T10:31:29.437Z,9.661457
2022-12-06T10:32:29.348Z,9.661510
2022-12-06T10:33:29.319Z,9.661539
2022-12-06T10:34:29.452Z,9.661534
2022-12-06T10:35:29.350Z,9.661486
2022-12-06T10:36:29.323Z,9.661403
2022-12-06T10:37:29.304Z,9.661207
2022-12-06T10:38:29.284Z,9.661322
2022-12-06T10:39:29.303Z,9.661433
2022-12-06T10:40:29.325Z,9.661503
2022-12-06T10:41:29.334Z,9.661315
2022-12-06T10:42:29.279Z,9.661353
2022-12-06T10:43:29.254Z,9.661337
2022-12-06T10:44:29.270Z,9.661404
2022-12-06T10:45:29.300Z,9.661629
2022-12-06T10:46:29.331Z,9.661458
2022-12-06T10:47:29.237Z,9.661531
2022-12-06T10:48:29.229Z,9.661682
2022-12-06T10:49:29.268Z,9.661205
2022-12-06T10:50:29.239Z,9.660973
2022-12-06T10:51:29.278Z,9.660474
2022-12-06T10:52:29.215Z,9.660381
2022-12-06T10:53:29.242Z,9.660194
2022-12-06T10:54:29.197Z,9.659923
2022-12-06T10:55:29.193Z,9.660155
2022-12-06T10:56:29.223Z,9.661180
2022-12-06T10:57:29.195Z,9.661975
2022-12-06T10:58:29.190Z,9.662075
2022-12-06T10:59:29.168Z,9.661766
2022-12-06T11:00:29.279Z,9.661847
2022-12-06T11:01:29.217Z,9.661546
2022-12-06T11:02:29.258Z,9.661573
2022-12-06T11:03:29.169Z,9.661554
2022-12-06T11:04:29.128Z,9.661802
2022-12-06T11:05:29.133Z,9.662201
2022-12-06T11:06:29.146Z,9.662204
2022-12-06T11:07:29.258Z,9.661982
2022-12-06T11:08:29.172Z,9.661604
2022-12-06T11:09:29.092Z,9.661414
2022-12-06T11:10:29.120Z,9.661487
2022-12-06T11:11:29.142Z,9.661695
2022-12-06T11:12:31.455Z,9.661674
2022-12-06T11:13:30.113Z,9.661734
2022-12-06T11:14:29.114Z,9.661723
2022-12-06T11:15:29.077Z,9.661660
2022-12-06T11:16:29.139Z,9.661660
2022-12-06T11:17:29.208Z,9.661510
2022-12-06T11:18:29.079Z,9.661536
2022-12-06T11:19:29.082Z,9.661563
2022-12-06T11:20:29.034Z,9.661640
2022-12-06T11:21:29.013Z,9.661591
2022-12-06T11:22:29.028Z,9.661555
2022-12-06T11:23:29.061Z,9.661617
2022-12-06T11:24:29.004Z,9.661497
2022-12-06T11:25:29.044Z,9.661597
2022-12-06T11:26:29.023Z,9.661611
2022-12-06T11:27:29.001Z,9.661562
2022-12-06T11:28:29.034Z,9.661639
2022-12-06T11:29:29.007Z,9.661502
2022-12-06T11:30:28.979Z,9.661680
2022-12-06T11:31:29.089Z,9.661523
2022-12-06T11:32:29.017Z,9.661535
2022-12-06T11:33:28.966Z,9.661555
2022-12-06T11:34:29.083Z,9.661551
2022-12-06T11:35:28.975Z,9.661539
2022-12-06T11:36:28.967Z,9.661513
2022-12-06T11:37:28.952Z,9.661514
2022-12-06T11:38:29.152Z,9.661676
2022-12-06T11:39:28.993Z,9.661695
2022-12-06T11:40:28.950Z,9.661691
2022-12-06T11:41:28.919Z,9.661798
2022-12-06T11:42:28.925Z,9.661554
2022-12-06T11:43:28.918Z,9.661691
2022-12-06T11:44:28.906Z,9.661738